createdAt,value
2023-06-10T00:00:07.773Z,18.98
2023-06-10T00:03:15.776Z,20.67
2023-06-10T00:06:17.981Z,20.90
2023-06-10T00:09:20.042Z,21.65
2023-06-10T00:12:22.131Z,23.70
2023-06-10T00:15:24.195Z,23.20
2023-06-10T00:18:28.051Z,21.70
2023-06-10T00:21:31.139Z,22.23
2023-06-10T00:24:33.361Z,21.98
2023-06-10T00:27:36.493Z,21.93
2023-06-10T00:30:38.589Z,21.73
2023-06-10T00:33:40.730Z,19.65
2023-06-10T00:36:44.392Z,16.58
2023-06-10T00:39:46.503Z,15.65
2023-06-10T00:42:48.595Z,15.97
2023-06-10T00:45:51.022Z,14.60
2023-06-10T00:48:53.406Z,14.73
2023-06-10T00:51:55.658Z,13.45
2023-06-10T00:54:57.805Z,13.93
2023-06-10T00:57:59.866Z,13.07
2023-06-10T01:01:02.131Z,13.18
2023-06-10T01:04:04.756Z,12.90
2023-06-10T01:07:19.651Z,11.85
2023-06-10T01:10:26.550Z,12.32
2023-06-10T01:13:32.906Z,11.00
2023-06-10T01:16:37.234Z,11.90
2023-06-10T01:19:39.417Z,11.88
2023-06-10T01:22:41.481Z,11.13
2023-06-10T01:25:49.360Z,12.07
2023-06-10T01:28:55.650Z,11.53
2023-06-10T01:31:57.677Z,12.48
2023-06-10T01:35:00.701Z,13.15
2023-06-10T01:38:03.888Z,10.80
2023-06-10T01:41:07.103Z,12.32
2023-06-10T01:44:09.976Z,11.57
2023-06-10T01:47:12.083Z,12.90
2023-06-10T01:50:14.309Z,12.73
2023-06-10T01:53:16.398Z,12.75
2023-06-10T01:56:20.551Z,13.82
2023-06-10T01:59:22.697Z,13.23
2023-06-10T02:02:26.098Z,13.45
2023-06-10T02:05:28.224Z,13.82
2023-06-10T02:08:30.365Z,16.50
2023-06-10T02:11:34.588Z,13.77
2023-06-10T02:14:37.317Z,13.30
2023-06-10T02:17:39.488Z,13.30
2023-06-10T02:20:41.583Z,13.30
2023-06-10T02:23:43.716Z,12.65
2023-06-10T02:26:46.340Z,11.52
2023-06-10T02:29:48.845Z,11.17
2023-06-10T02:32:52.005Z,11.15
2023-06-10T02:35:55.548Z,11.70
2023-06-10T02:38:58.553Z,10.75
2023-06-10T02:42:01.430Z,11.95
2023-06-10T02:45:04.209Z,10.50
2023-06-10T02:48:12.990Z,10.85
2023-06-10T02:51:16.220Z,11.68
2023-06-10T02:54:22.333Z,11.65
2023-06-10T02:57:24.489Z,12.55
2023-06-10T03:00:26.604Z,13.17
2023-06-10T03:03:28.965Z,14.38
2023-06-10T03:06:39.702Z,14.65
2023-06-10T03:09:51.662Z,13.05
2023-06-10T03:12:53.884Z,12.60
2023-06-10T03:15:56.466Z,12.87
2023-06-10T03:19:00.525Z,11.98
2023-06-10T03:22:10.309Z,12.23
2023-06-10T03:25:15.985Z,12.32
2023-06-10T03:28:22.555Z,12.43
2023-06-10T03:31:25.949Z,13.13
2023-06-10T03:34:31.074Z,12.35
2023-06-10T03:37:34.004Z,14.23
2023-06-10T03:40:36.199Z,13.18
2023-06-10T03:43:41.770Z,13.98
2023-06-10T03:46:44.148Z,13.03
2023-06-10T03:49:46.438Z,13.45
2023-06-10T03:52:48.695Z,14.57
2023-06-10T03:55:52.383Z,12.88
2023-06-10T03:58:58.005Z,13.93
2023-06-10T04:02:00.183Z,12.77
2023-06-10T04:05:02.692Z,11.73
2023-06-10T04:08:04.892Z,12.75
2023-06-10T04:11:07.119Z,11.60
2023-06-10T04:14:09.383Z,13.25
2023-06-10T04:17:12.457Z,12.37
2023-06-10T04:20:15.636Z,16.13
2023-06-10T04:23:20.368Z,16.15
2023-06-10T04:26:23.298Z,17.63
2023-06-10T04:29:27.973Z,16.10
2023-06-10T04:32:30.083Z,16.20
2023-06-10T04:35:32.761Z,17.00
2023-06-10T04:38:36.432Z,15.02
2023-06-10T04:41:38.628Z,15.93
2023-06-10T04:44:41.695Z,15.32
2023-06-10T04:47:44.695Z,15.23
2023-06-10T04:50:47.355Z,15.63
2023-06-10T04:53:49.489Z,18.00
2023-06-10T04:56:51.544Z,16.42
2023-06-10T04:59:54.101Z,16.20
2023-06-10T05:02:57.491Z,17.43
2023-06-10T05:05:59.824Z,16.27
2023-06-10T05:09:01.979Z,17.17
2023-06-10T05:12:04.785Z,17.15
2023-06-10T05:15:08.110Z,17.35
2023-06-10T05:18:10.525Z,15.57
2023-06-10T05:21:12.931Z,15.68
2023-06-10T05:24:15.031Z,14.88
2023-06-10T05:27:17.182Z,15.70
2023-06-10T05:30:19.984Z,14.93
2023-06-10T05:33:22.142Z,14.37
2023-06-10T05:36:26.469Z,14.88
2023-06-10T05:39:28.583Z,14.55
2023-06-10T05:42:30.690Z,14.13
2023-06-10T05:45:32.908Z,13.35
2023-06-10T05:48:35.025Z,15.13
2023-06-10T05:51:38.629Z,16.02
2023-06-10T05:54:41.255Z,14.75
2023-06-10T05:57:43.709Z,13.95
2023-06-10T06:00:45.952Z,14.60
2023-06-10T06:03:48.169Z,13.50
2023-06-10T06:06:50.265Z,13.35
2023-06-10T06:09:52.403Z,12.60
2023-06-10T06:12:54.498Z,13.32
2023-06-10T06:15:56.658Z,12.65
2023-06-10T06:18:58.733Z,13.43
2023-06-10T06:22:00.972Z,14.93
2023-06-10T06:25:03.816Z,14.82
2023-06-10T06:28:07.364Z,15.73
2023-06-10T06:31:09.658Z,16.70
2023-06-10T06:34:13.759Z,16.20
2023-06-10T06:37:17.965Z,15.25
2023-06-10T06:40:20.911Z,15.38
2023-06-10T06:43:23.022Z,14.13
2023-06-10T06:46:39.738Z,15.48
2023-06-10T06:49:41.868Z,14.77
2023-06-10T06:52:44.010Z,15.27
2023-06-10T06:55:46.090Z,14.77
2023-06-10T06:58:48.216Z,15.38
2023-06-10T07:01:51.380Z,14.68
2023-06-10T07:04:56.589Z,14.10
2023-06-10T07:07:58.787Z,15.38
2023-06-10T07:11:00.987Z,15.35
2023-06-10T07:14:03.104Z,15.48
2023-06-10T07:17:05.319Z,14.80
2023-06-10T07:20:07.670Z,14.03
2023-06-10T07:23:09.804Z,12.60
2023-06-10T07:26:12.375Z,13.63
2023-06-10T07:29:14.530Z,12.45
2023-06-10T07:32:19.261Z,13.57
2023-06-10T07:35:22.075Z,13.07
2023-06-10T07:38:24.176Z,13.27
2023-06-10T07:41:26.480Z,13.30
2023-06-10T07:44:28.600Z,12.90
2023-06-10T07:47:31.188Z,12.73
2023-06-10T07:50:33.277Z,13.13
2023-06-10T07:53:35.818Z,13.75
2023-06-10T07:56:37.949Z,13.23
2023-06-10T07:59:40.140Z,12.32
2023-06-10T08:02:42.354Z,12.60
2023-06-10T08:05:44.542Z,13.57
2023-06-10T08:08:46.975Z,13.23
2023-06-10T08:11:50.205Z,14.63
2023-06-10T08:14:52.356Z,12.88
2023-06-10T08:17:54.566Z,13.20
2023-06-10T08:20:56.915Z,13.37
2023-06-10T08:23:59.008Z,13.02
2023-06-10T08:27:01.092Z,12.73
2023-06-10T08:30:03.257Z,12.45
2023-06-10T08:33:05.366Z,12.85
2023-06-10T08:36:07.490Z,11.50
2023-06-10T08:39:10.285Z,12.02
2023-06-10T08:42:20.176Z,11.45
2023-06-10T08:45:24.165Z,11.63
2023-06-10T08:48:28.127Z,12.05
2023-06-10T08:51:31.117Z,13.13
2023-06-10T08:54:34.353Z,14.27
2023-06-10T08:57:36.920Z,14.80
2023-06-10T09:00:39.212Z,12.38
2023-06-10T09:03:43.058Z,11.10
2023-06-10T09:09:50.721Z,10.07
2023-06-10T09:12:52.931Z,9.77
2023-06-10T09:15:57.499Z,8.93
2023-06-10T09:19:00.050Z,7.10
2023-06-10T09:22:02.118Z,7.30
2023-06-10T09:25:06.757Z,5.50
2023-06-10T09:28:16.084Z,6.35
2023-06-10T09:31:23.117Z,5.88
2023-06-10T09:34:26.682Z,4.85
2023-06-10T09:37:28.877Z,6.20
2023-06-10T09:40:30.997Z,5.22
2023-06-10T09:43:43.972Z,4.75
2023-06-10T09:46:46.594Z,5.18
2023-06-10T09:49:48.891Z,4.93
2023-06-10T09:52:51.512Z,4.70
2023-06-10T09:55:53.740Z,5.38
2023-06-10T09:58:55.900Z,5.00
2023-06-10T10:01:58.281Z,5.68
2023-06-10T10:05:04.489Z,4.60
2023-06-10T10:08:06.613Z,4.20
2023-06-10T10:11:08.700Z,3.72
2023-06-10T10:14:11.134Z,4.18
2023-06-10T10:17:15.790Z,4.70
2023-06-10T10:20:19.143Z,5.05
2023-06-10T10:23:25.195Z,4.83
2023-06-10T10:26:27.603Z,4.90
2023-06-10T10:29:29.676Z,4.80
2023-06-10T10:32:50.573Z,5.40
2023-06-10T10:35:53.038Z,5.07
2023-06-10T10:38:55.758Z,5.87
2023-06-10T10:41:58.191Z,4.35
2023-06-10T10:45:00.634Z,4.50
2023-06-10T10:48:13.312Z,3.78
2023-06-10T10:51:16.666Z,3.78
2023-06-10T10:54:18.873Z,3.50
2023-06-10T10:57:22.332Z,3.58
2023-06-10T11:00:38.620Z,3.63
2023-06-10T11:03:48.526Z,3.05
2023-06-10T11:06:54.938Z,4.18
2023-06-10T11:10:00.981Z,4.87
2023-06-10T11:13:16.337Z,5.63
2023-06-10T11:16:21.153Z,5.70
2023-06-10T11:19:32.920Z,6.10
2023-06-10T11:22:54.892Z,6.22
2023-06-10T11:26:17.268Z,5.83
2023-06-10T11:29:20.891Z,6.13
2023-06-10T11:32:23.508Z,5.78
2023-06-10T11:35:26.213Z,6.03
2023-06-10T11:38:29.373Z,5.43
2023-06-10T11:41:32.164Z,5.00
2023-06-10T11:44:38.871Z,5.22
2023-06-10T11:47:41.006Z,4.38
2023-06-10T11:50:43.258Z,4.95
2023-06-10T11:53:48.992Z,4.47
2023-06-10T11:56:51.211Z,4.83
2023-06-10T11:59:53.272Z,4.20
2023-06-10T12:02:59.189Z,5.10
2023-06-10T12:06:05.439Z,3.83
2023-06-10T12:09:22.718Z,3.95
2023-06-10T12:12:26.949Z,3.83
2023-06-10T12:15:30.198Z,3.78
2023-06-10T12:18:32.347Z,3.20
2023-06-10T12:21:36.628Z,3.33
2023-06-10T12:25:00.828Z,3.17
2023-06-10T12:28:03.896Z,3.00
2023-06-10T12:31:09.214Z,3.25
2023-06-10T12:34:11.401Z,2.83
2023-06-10T12:37:16.492Z,3.20
2023-06-10T12:40:18.576Z,2.97
2023-06-10T12:43:21.321Z,2.50
2023-06-10T12:46:23.934Z,2.90
2023-06-10T12:49:28.618Z,3.30
2023-06-10T12:52:30.771Z,2.60
2023-06-10T12:55:33.603Z,2.67
2023-06-10T12:58:35.672Z,3.57
2023-06-10T13:01:39.125Z,2.95
2023-06-10T13:04:41.312Z,2.70
2023-06-10T13:07:43.434Z,2.85
2023-06-10T13:10:45.519Z,3.17
2023-06-10T13:13:48.102Z,3.40
2023-06-10T13:16:50.347Z,2.85
2023-06-10T13:19:52.481Z,2.53
2023-06-10T13:22:54.658Z,2.50
2023-06-10T13:25:56.907Z,2.95
2023-06-10T13:28:59.011Z,2.67
2023-06-10T13:32:01.104Z,2.47
2023-06-10T13:35:05.283Z,3.40
2023-06-10T13:38:08.415Z,2.72
2023-06-10T13:41:11.410Z,2.90
2023-06-10T13:44:13.620Z,2.83
2023-06-10T13:47:16.044Z,3.33
2023-06-10T13:50:18.455Z,3.08
2023-06-10T13:53:20.543Z,3.15
2023-06-10T13:56:22.661Z,2.75
2023-06-10T13:59:24.890Z,2.83
2023-06-10T14:02:27.097Z,2.90
2023-06-10T14:05:31.039Z,2.60
2023-06-10T14:08:34.226Z,3.00
2023-06-10T14:11:36.511Z,2.90
2023-06-10T14:14:38.586Z,2.70
2023-06-10T14:17:40.683Z,2.65
2023-06-10T14:20:42.820Z,2.88
2023-06-10T14:23:44.999Z,3.22
2023-06-10T14:26:47.106Z,3.25
2023-06-10T14:29:49.227Z,2.63
2023-06-10T14:32:52.359Z,5.00
2023-06-10T14:35:54.397Z,2.63
2023-06-10T14:38:58.141Z,3.20
2023-06-10T14:42:00.348Z,2.83
2023-06-10T14:45:02.510Z,3.10
2023-06-10T14:48:05.372Z,2.78
2023-06-10T14:51:07.553Z,2.67
2023-06-10T14:54:09.752Z,2.33
2023-06-10T14:57:11.925Z,2.80
2023-06-10T15:00:16.540Z,2.33
2023-06-10T15:03:18.596Z,2.10
2023-06-10T15:06:24.016Z,2.33
2023-06-10T15:09:26.341Z,2.55
2023-06-10T15:12:29.132Z,3.10
2023-06-10T15:15:31.178Z,2.50
2023-06-10T15:18:33.596Z,2.53
2023-06-10T15:21:36.362Z,2.47
2023-06-10T15:24:38.436Z,2.40
2023-06-10T15:27:40.635Z,2.10
2023-06-10T15:30:42.784Z,1.83
2023-06-10T15:33:47.568Z,2.22
2023-06-10T15:36:49.967Z,2.83
2023-06-10T15:39:52.026Z,2.10
2023-06-10T15:42:54.131Z,2.55
2023-06-10T15:45:56.484Z,3.10
2023-06-10T15:48:58.642Z,2.53
2023-06-10T15:52:00.851Z,3.00
2023-06-10T15:55:03.729Z,2.88
2023-06-10T15:58:06.125Z,3.28
2023-06-10T16:01:10.315Z,3.17
2023-06-10T16:04:12.821Z,3.33
2023-06-10T16:07:14.869Z,3.20
2023-06-10T16:10:17.020Z,3.60
2023-06-10T16:13:19.196Z,3.92
2023-06-10T16:16:21.422Z,3.33
2023-06-10T16:19:23.650Z,3.60
2023-06-10T16:22:25.765Z,4.00
2023-06-10T16:25:27.799Z,3.15
2023-06-10T16:28:30.016Z,3.67
2023-06-10T16:31:32.151Z,3.20
2023-06-10T16:34:34.316Z,3.45
2023-06-10T16:37:36.418Z,3.83
2023-06-10T16:40:38.629Z,3.33
2023-06-10T16:43:40.761Z,2.95
2023-06-10T16:46:42.972Z,2.80
2023-06-10T16:49:46.717Z,3.00
2023-06-10T16:52:51.312Z,3.63
2023-06-10T16:55:53.436Z,3.53
2023-06-10T16:58:55.572Z,4.40
2023-06-10T17:01:58.352Z,4.87
2023-06-10T17:05:01.897Z,4.07
2023-06-10T17:08:04.151Z,3.60
2023-06-10T17:11:06.227Z,3.78
2023-06-10T17:14:08.391Z,4.00
2023-06-10T17:17:11.158Z,3.97
2023-06-10T17:20:13.457Z,4.10
2023-06-10T17:23:15.782Z,3.85
2023-06-10T17:26:17.888Z,3.60
2023-06-10T17:29:20.123Z,3.83
2023-06-10T17:32:22.242Z,4.13
2023-06-10T17:35:24.423Z,4.15
2023-06-10T17:38:26.529Z,3.10
2023-06-10T17:41:28.628Z,3.78
2023-06-10T17:44:32.349Z,3.70
2023-06-10T17:47:34.632Z,3.83
2023-06-10T17:50:36.765Z,3.78
2023-06-10T17:53:38.889Z,3.70
2023-06-10T17:56:40.993Z,3.55
2023-06-10T17:59:43.606Z,4.20
2023-06-10T18:02:45.806Z,4.17
2023-06-10T18:05:47.933Z,4.60
2023-06-10T18:08:50.080Z,4.68
2023-06-10T18:11:52.243Z,4.07
2023-06-10T18:14:54.361Z,4.70
2023-06-10T18:17:56.643Z,5.00
2023-06-10T18:21:01.231Z,4.47
2023-06-10T18:24:05.907Z,5.03
2023-06-10T18:27:08.713Z,5.28
2023-06-10T18:30:11.231Z,5.60
2023-06-10T18:33:13.383Z,4.50
2023-06-10T18:36:15.521Z,4.32
2023-06-10T18:39:17.671Z,3.88
2023-06-10T18:42:19.775Z,4.38
2023-06-10T18:45:21.976Z,5.40
2023-06-10T18:48:24.130Z,5.70
2023-06-10T18:51:26.554Z,5.72
2023-06-10T18:54:28.699Z,5.55
2023-06-10T18:57:30.831Z,5.00
2023-06-10T19:00:32.890Z,4.53
2023-06-10T19:03:35.215Z,4.50
2023-06-10T19:06:40.075Z,4.35
2023-06-10T19:09:42.220Z,4.60
2023-06-10T19:12:44.352Z,4.63
2023-06-10T19:15:46.423Z,4.20
2023-06-10T19:18:48.482Z,4.60
2023-06-10T19:21:50.628Z,3.72
2023-06-10T19:25:06.440Z,4.07
2023-06-10T19:28:09.699Z,4.53
2023-06-10T19:31:11.775Z,4.40
2023-06-10T19:34:13.900Z,4.00
2023-06-10T19:37:16.526Z,4.15
2023-06-10T19:40:18.678Z,4.35
2023-06-10T19:43:20.857Z,4.03
2023-06-10T19:46:23.254Z,4.40
2023-06-10T19:49:25.411Z,4.37
2023-06-10T19:52:28.019Z,4.35
2023-06-10T19:55:30.080Z,4.28
2023-06-10T19:58:32.130Z,4.68
2023-06-10T20:01:34.218Z,4.95
2023-06-10T20:04:36.450Z,5.37
2023-06-10T20:07:38.565Z,5.75
2023-06-10T20:10:41.871Z,4.70
2023-06-10T20:13:43.911Z,6.28
2023-06-10T20:16:46.438Z,6.60
2023-06-10T20:19:53.518Z,5.93
2023-06-10T20:22:56.222Z,6.13
2023-06-10T20:25:58.858Z,9.27
2023-06-10T20:29:01.912Z,9.82
2023-06-10T20:32:04.126Z,9.93
2023-06-10T20:35:06.807Z,7.77
2023-06-10T20:38:08.876Z,7.13
2023-06-10T20:41:11.036Z,6.97
2023-06-10T20:44:14.953Z,7.30
2023-06-10T20:47:17.036Z,7.50
2023-06-10T20:50:19.161Z,6.90
2023-06-10T20:53:21.318Z,7.45
2023-06-10T20:56:23.447Z,7.57
2023-06-10T20:59:25.540Z,7.90
2023-06-10T21:02:27.670Z,7.63
2023-06-10T21:05:29.869Z,7.67
2023-06-10T21:08:31.922Z,8.18
2023-06-10T21:11:33.977Z,7.97
2023-06-10T21:14:36.091Z,7.90
2023-06-10T21:17:38.314Z,9.40
2023-06-10T21:20:40.537Z,8.57
2023-06-10T21:23:42.675Z,7.93
2023-06-10T21:26:44.805Z,9.00
2023-06-10T21:29:47.205Z,9.95
2023-06-10T21:32:50.111Z,8.73
2023-06-10T21:35:52.222Z,8.73
2023-06-10T21:38:54.257Z,8.60
2023-06-10T21:41:56.380Z,8.13
2023-06-10T21:44:58.435Z,8.07
2023-06-10T21:48:00.590Z,9.68
2023-06-10T21:51:02.717Z,9.40
2023-06-10T21:54:04.839Z,9.50
2023-06-10T21:57:07.546Z,8.75
2023-06-10T22:00:15.575Z,9.05
2023-06-10T22:03:17.749Z,9.15
2023-06-10T22:06:20.264Z,8.40
2023-06-10T22:09:22.570Z,8.98
2023-06-10T22:12:24.673Z,8.45
2023-06-10T22:15:27.014Z,8.85
2023-06-10T22:18:29.121Z,9.63
2023-06-10T22:21:31.498Z,9.27
2023-06-10T22:24:33.563Z,8.40
2023-06-10T22:27:35.678Z,9.88
2023-06-10T22:30:37.768Z,9.50
2023-06-10T22:33:39.824Z,8.95
2023-06-10T22:36:41.964Z,9.57
2023-06-10T22:39:44.028Z,9.35
2023-06-10T22:42:46.065Z,9.27
2023-06-10T22:45:48.166Z,10.30
2023-06-10T22:48:50.541Z,9.40
2023-06-10T22:51:52.803Z,9.87
2023-06-10T22:54:54.928Z,10.73
2023-06-10T22:57:57.011Z,10.73
2023-06-10T23:00:59.164Z,10.32
2023-06-10T23:04:01.372Z,10.60
2023-06-10T23:07:03.518Z,11.10
2023-06-10T23:10:06.427Z,10.93
2023-06-10T23:13:08.500Z,12.60
2023-06-10T23:16:10.593Z,10.38
2023-06-10T23:19:14.154Z,11.32
2023-06-10T23:22:16.953Z,10.73
2023-06-10T23:25:21.970Z,10.73
2023-06-10T23:28:24.080Z,12.23
2023-06-10T23:31:27.329Z,12.18
2023-06-10T23:34:29.477Z,13.15
2023-06-10T23:37:31.718Z,12.13
2023-06-10T23:40:33.778Z,13.13
2023-06-10T23:43:36.000Z,14.75
2023-06-10T23:46:38.393Z,15.18
2023-06-10T23:49:40.557Z,14.63
2023-06-10T23:52:42.695Z,14.20
2023-06-10T23:55:44.861Z,15.15
2023-06-10T23:58:48.263Z,14.18
